sensor_id;sensor_type;location;lat;lon;timestamp;P1;durP1;ratioP1;P2;durP2;ratioP2
43670;SDS011;29267;50.906;7.248;2023-12-20T00:01:41;19.65;;;10.75;;
43670;SDS011;29267;50.906;7.248;2023-12-20T00:04:06;17.42;;;9.93;;
43670;SDS011;29267;50.906;7.248;2023-12-20T00:06:32;23.80;;;12.18;;
43670;SDS011;29267;50.906;7.248;2023-12-20T00:08:58;18.90;;;10.20;;
43670;SDS011;29267;50.906;7.248;2023-12-20T00:11:23;22.48;;;11.30;;
43670;SDS011;29267;50.906;7.248;2023-12-20T00:13:49;17.85;;;10.20;;
43670;SDS011;29267;50.906;7.248;2023-12-20T00:16:15;18.15;;;10.20;;
43670;SDS011;29267;50.906;7.248;2023-12-20T00:18:41;20.02;;;10.63;;
43670;SDS011;29267;50.906;7.248;2023-12-20T00:21:06;18.20;;;9.95;;
43670;SDS011;29267;50.906;7.248;2023-12-20T00:23:32;21.02;;;10.30;;
43670;SDS011;29267;50.906;7.248;2023-12-20T00:25:57;22.20;;;12.05;;
43670;SDS011;29267;50.906;7.248;2023-12-20T00:28:23;21.15;;;11.07;;
43670;SDS011;29267;50.906;7.248;2023-12-20T00:30:49;17.20;;;10.40;;
43670;SDS011;29267;50.906;7.248;2023-12-20T00:33:14;15.50;;;9.38;;
43670;SDS011;29267;50.906;7.248;2023-12-20T00:35:40;19.27;;;9.35;;
43670;SDS011;29267;50.906;7.248;2023-12-20T00:38:06;18.95;;;9.77;;
43670;SDS011;29267;50.906;7.248;2023-12-20T00:40:33;16.98;;;10.25;;
43670;SDS011;29267;50.906;7.248;2023-12-20T00:42:59;19.35;;;10.68;;
43670;SDS011;29267;50.906;7.248;2023-12-20T00:45:24;16.73;;;8.98;;
43670;SDS011;29267;50.906;7.248;2023-12-20T00:47:50;21.45;;;10.63;;
43670;SDS011;29267;50.906;7.248;2023-12-20T00:50:16;15.55;;;8.88;;
43670;SDS011;29267;50.906;7.248;2023-12-20T00:52:41;15.90;;;8.27;;
43670;SDS011;29267;50.906;7.248;2023-12-20T00:55:07;14.75;;;8.00;;
43670;SDS011;29267;50.906;7.248;2023-12-20T00:57:33;12.60;;;7.45;;
43670;SDS011;29267;50.906;7.248;2023-12-20T00:59:59;11.32;;;6.35;;
43670;SDS011;29267;50.906;7.248;2023-12-20T01:02:24;10.32;;;5.13;;
43670;SDS011;29267;50.906;7.248;2023-12-20T01:04:50;8.93;;;4.43;;
43670;SDS011;29267;50.906;7.248;2023-12-20T01:07:16;5.85;;;3.63;;
43670;SDS011;29267;50.906;7.248;2023-12-20T01:09:41;8.30;;;4.63;;
43670;SDS011;29267;50.906;7.248;2023-12-20T01:12:07;7.90;;;3.97;;
43670;SDS011;29267;50.906;7.248;2023-12-20T01:14:32;9.98;;;4.13;;
43670;SDS011;29267;50.906;7.248;2023-12-20T01:16:58;7.68;;;4.47;;
43670;SDS011;29267;50.906;7.248;2023-12-20T01:19:24;11.23;;;5.10;;
43670;SDS011;29267;50.906;7.248;2023-12-20T01:21:50;9.85;;;5.38;;
43670;SDS011;29267;50.906;7.248;2023-12-20T01:24:15;12.65;;;7.07;;
43670;SDS011;29267;50.906;7.248;2023-12-20T01:26:41;11.73;;;7.05;;
43670;SDS011;29267;50.906;7.248;2023-12-20T01:29:07;15.27;;;8.23;;
43670;SDS011;29267;50.906;7.248;2023-12-20T01:31:32;13.50;;;8.43;;
43670;SDS011;29267;50.906;7.248;2023-12-20T01:33:58;19.60;;;8.98;;
43670;SDS011;29267;50.906;7.248;2023-12-20T01:36:24;14.82;;;8.35;;
43670;SDS011;29267;50.906;7.248;2023-12-20T01:38:49;16.17;;;8.70;;
43670;SDS011;29267;50.906;7.248;2023-12-20T01:41:15;17.63;;;9.13;;
43670;SDS011;29267;50.906;7.248;2023-12-20T01:43:40;17.70;;;9.25;;
43670;SDS011;29267;50.906;7.248;2023-12-20T01:46:06;16.27;;;8.15;;
43670;SDS011;29267;50.906;7.248;2023-12-20T01:48:32;12.85;;;7.75;;
43670;SDS011;29267;50.906;7.248;2023-12-20T01:50:59;13.95;;;7.47;;
43670;SDS011;29267;50.906;7.248;2023-12-20T01:53:25;13.43;;;6.88;;
43670;SDS011;29267;50.906;7.248;2023-12-20T01:55:52;19.42;;;8.02;;
43670;SDS011;29267;50.906;7.248;2023-12-20T01:58:21;15.68;;;6.40;;
43670;SDS011;29267;50.906;7.248;2023-12-20T02:00:48;16.17;;;7.13;;
43670;SDS011;29267;50.906;7.248;2023-12-20T02:03:14;15.15;;;5.95;;
43670;SDS011;29267;50.906;7.248;2023-12-20T02:05:39;20.75;;;6.85;;
43670;SDS011;29267;50.906;7.248;2023-12-20T02:08:06;19.63;;;7.82;;
43670;SDS011;29267;50.906;7.248;2023-12-20T02:10:31;13.73;;;7.22;;
43670;SDS011;29267;50.906;7.248;2023-12-20T02:12:57;11.95;;;6.95;;
43670;SDS011;29267;50.906;7.248;2023-12-20T02:15:23;17.80;;;7.03;;
43670;SDS011;29267;50.906;7.248;2023-12-20T02:17:49;20.80;;;6.75;;
43670;SDS011;29267;50.906;7.248;2023-12-20T02:20:15;20.75;;;7.20;;
43670;SDS011;29267;50.906;7.248;2023-12-20T02:22:41;15.70;;;7.65;;
43670;SDS011;29267;50.906;7.248;2023-12-20T02:25:07;15.35;;;8.23;;
43670;SDS011;29267;50.906;7.248;2023-12-20T02:27:32;19.65;;;9.07;;
43670;SDS011;29267;50.906;7.248;2023-12-20T02:29:59;16.30;;;8.38;;
43670;SDS011;29267;50.906;7.248;2023-12-20T02:32:25;22.60;;;8.90;;
43670;SDS011;29267;50.906;7.248;2023-12-20T02:34:54;23.35;;;10.25;;
43670;SDS011;29267;50.906;7.248;2023-12-20T02:37:20;27.77;;;9.05;;
43670;SDS011;29267;50.906;7.248;2023-12-20T02:39:46;19.30;;;9.13;;
43670;SDS011;29267;50.906;7.248;2023-12-20T02:42:11;20.15;;;9.45;;
43670;SDS011;29267;50.906;7.248;2023-12-20T02:44:37;20.52;;;9.23;;
43670;SDS011;29267;50.906;7.248;2023-12-20T02:47:03;19.92;;;9.20;;
43670;SDS011;29267;50.906;7.248;2023-12-20T02:49:29;21.73;;;8.50;;
43670;SDS011;29267;50.906;7.248;2023-12-20T02:51:54;16.23;;;8.50;;
43670;SDS011;29267;50.906;7.248;2023-12-20T02:54:20;20.83;;;8.05;;
43670;SDS011;29267;50.906;7.248;2023-12-20T02:56:46;15.43;;;6.80;;
43670;SDS011;29267;50.906;7.248;2023-12-20T02:59:13;16.38;;;6.97;;
43670;SDS011;29267;50.906;7.248;2023-12-20T03:01:42;18.95;;;6.82;;
43670;SDS011;29267;50.906;7.248;2023-12-20T03:04:09;23.75;;;5.97;;
43670;SDS011;29267;50.906;7.248;2023-12-20T03:06:35;15.32;;;6.28;;
43670;SDS011;29267;50.906;7.248;2023-12-20T03:09:01;24.27;;;6.47;;
43670;SDS011;29267;50.906;7.248;2023-12-20T03:11:27;25.38;;;6.47;;
43670;SDS011;29267;50.906;7.248;2023-12-20T03:13:53;17.58;;;6.47;;
43670;SDS011;29267;50.906;7.248;2023-12-20T03:16:19;16.83;;;5.25;;
43670;SDS011;29267;50.906;7.248;2023-12-20T03:18:44;16.10;;;6.20;;
43670;SDS011;29267;50.906;7.248;2023-12-20T03:21:10;15.30;;;5.78;;
43670;SDS011;29267;50.906;7.248;2023-12-20T03:23:35;13.63;;;5.07;;
43670;SDS011;29267;50.906;7.248;2023-12-20T03:26:01;17.40;;;6.90;;
43670;SDS011;29267;50.906;7.248;2023-12-20T03:28:27;16.42;;;5.07;;
43670;SDS011;29267;50.906;7.248;2023-12-20T03:30:53;10.93;;;4.43;;
43670;SDS011;29267;50.906;7.248;2023-12-20T03:33:18;24.35;;;4.22;;
43670;SDS011;29267;50.906;7.248;2023-12-20T03:35:44;7.35;;;3.05;;
43670;SDS011;29267;50.906;7.248;2023-12-20T03:38:10;23.83;;;3.30;;
43670;SDS011;29267;50.906;7.248;2023-12-20T03:40:35;16.70;;;3.92;;
43670;SDS011;29267;50.906;7.248;2023-12-20T03:43:01;17.35;;;3.28;;
43670;SDS011;29267;50.906;7.248;2023-12-20T03:45:27;15.77;;;3.63;;
43670;SDS011;29267;50.906;7.248;2023-12-20T03:47:52;6.47;;;2.47;;
43670;SDS011;29267;50.906;7.248;2023-12-20T03:50:23;13.40;;;2.38;;
43670;SDS011;29267;50.906;7.248;2023-12-20T03:52:49;9.65;;;3.20;;
43670;SDS011;29267;50.906;7.248;2023-12-20T03:55:15;8.13;;;2.83;;
43670;SDS011;29267;50.906;7.248;2023-12-20T03:57:40;17.25;;;2.97;;
43670;SDS011;29267;50.906;7.248;2023-12-20T04:00:09;10.65;;;2.97;;
43670;SDS011;29267;50.906;7.248;2023-12-20T04:02:36;10.18;;;2.45;;
43670;SDS011;29267;50.906;7.248;2023-12-20T04:05:05;27.95;;;2.65;;
43670;SDS011;29267;50.906;7.248;2023-12-20T04:07:32;13.07;;;3.40;;
43670;SDS011;29267;50.906;7.248;2023-12-20T04:09:58;6.07;;;3.25;;
43670;SDS011;29267;50.906;7.248;2023-12-20T04:12:24;17.85;;;3.92;;
43670;SDS011;29267;50.906;7.248;2023-12-20T04:14:49;10.90;;;2.85;;
43670;SDS011;29267;50.906;7.248;2023-12-20T04:17:15;20.92;;;3.75;;
43670;SDS011;29267;50.906;7.248;2023-12-20T04:19:42;18.15;;;4.63;;
43670;SDS011;29267;50.906;7.248;2023-12-20T04:22:07;20.15;;;3.92;;
43670;SDS011;29267;50.906;7.248;2023-12-20T04:24:33;13.35;;;3.17;;
43670;SDS011;29267;50.906;7.248;2023-12-20T04:26:59;19.50;;;5.07;;
43670;SDS011;29267;50.906;7.248;2023-12-20T04:29:25;13.93;;;4.15;;
43670;SDS011;29267;50.906;7.248;2023-12-20T04:31:50;22.02;;;4.82;;
43670;SDS011;29267;50.906;7.248;2023-12-20T04:34:19;14.13;;;4.70;;
43670;SDS011;29267;50.906;7.248;2023-12-20T04:36:45;16.60;;;4.32;;
43670;SDS011;29267;50.906;7.248;2023-12-20T04:39:11;14.57;;;4.15;;
43670;SDS011;29267;50.906;7.248;2023-12-20T04:41:38;20.00;;;8.70;;
43670;SDS011;29267;50.906;7.248;2023-12-20T04:44:04;13.48;;;6.20;;
43670;SDS011;29267;50.906;7.248;2023-12-20T04:46:29;18.48;;;6.97;;
43670;SDS011;29267;50.906;7.248;2023-12-20T04:48:55;23.13;;;6.15;;
43670;SDS011;29267;50.906;7.248;2023-12-20T04:51:20;15.43;;;3.10;;
43670;SDS011;29267;50.906;7.248;2023-12-20T04:53:46;19.92;;;4.95;;
43670;SDS011;29267;50.906;7.248;2023-12-20T04:56:12;20.63;;;4.60;;
43670;SDS011;29267;50.906;7.248;2023-12-20T04:58:38;13.25;;;4.78;;
43670;SDS011;29267;50.906;7.248;2023-12-20T05:01:04;21.35;;;3.53;;
43670;SDS011;29267;50.906;7.248;2023-12-20T05:03:31;19.30;;;3.55;;
43670;SDS011;29267;50.906;7.248;2023-12-20T05:05:57;20.35;;;4.60;;
43670;SDS011;29267;50.906;7.248;2023-12-20T05:08:23;20.88;;;5.00;;
43670;SDS011;29267;50.906;7.248;2023-12-20T05:10:49;14.80;;;3.58;;
43670;SDS011;29267;50.906;7.248;2023-12-20T05:13:14;19.40;;;3.40;;
43670;SDS011;29267;50.906;7.248;2023-12-20T05:15:40;19.58;;;3.88;;
43670;SDS011;29267;50.906;7.248;2023-12-20T05:18:06;15.30;;;4.35;;
43670;SDS011;29267;50.906;7.248;2023-12-20T05:20:32;15.52;;;3.33;;
43670;SDS011;29267;50.906;7.248;2023-12-20T05:22:57;23.92;;;4.13;;
43670;SDS011;29267;50.906;7.248;2023-12-20T05:25:23;15.10;;;3.63;;
43670;SDS011;29267;50.906;7.248;2023-12-20T05:27:49;21.17;;;3.83;;
43670;SDS011;29267;50.906;7.248;2023-12-20T05:30:14;20.15;;;4.10;;
43670;SDS011;29267;50.906;7.248;2023-12-20T05:32:40;13.82;;;3.40;;
43670;SDS011;29267;50.906;7.248;2023-12-20T05:35:05;14.68;;;3.63;;
43670;SDS011;29267;50.906;7.248;2023-12-20T05:37:32;25.02;;;3.53;;
43670;SDS011;29267;50.906;7.248;2023-12-20T05:39:57;18.70;;;3.65;;
43670;SDS011;29267;50.906;7.248;2023-12-20T05:42:23;16.77;;;4.53;;
43670;SDS011;29267;50.906;7.248;2023-12-20T05:44:49;17.95;;;4.10;;
43670;SDS011;29267;50.906;7.248;2023-12-20T05:47:15;20.20;;;4.68;;
43670;SDS011;29267;50.906;7.248;2023-12-20T05:49:40;21.08;;;3.88;;
43670;SDS011;29267;50.906;7.248;2023-12-20T05:52:06;19.17;;;3.80;;
43670;SDS011;29267;50.906;7.248;2023-12-20T05:54:31;27.48;;;4.75;;
43670;SDS011;29267;50.906;7.248;2023-12-20T05:56:57;16.27;;;3.75;;
43670;SDS011;29267;50.906;7.248;2023-12-20T05:59:23;20.70;;;4.90;;
43670;SDS011;29267;50.906;7.248;2023-12-20T06:01:49;12.10;;;3.55;;
43670;SDS011;29267;50.906;7.248;2023-12-20T06:04:14;21.13;;;4.35;;
43670;SDS011;29267;50.906;7.248;2023-12-20T06:06:40;20.05;;;4.18;;
43670;SDS011;29267;50.906;7.248;2023-12-20T06:09:07;15.27;;;3.50;;
43670;SDS011;29267;50.906;7.248;2023-12-20T06:11:33;21.33;;;4.00;;
43670;SDS011;29267;50.906;7.248;2023-12-20T06:13:58;16.90;;;4.55;;
43670;SDS011;29267;50.906;7.248;2023-12-20T06:16:24;15.15;;;4.10;;
43670;SDS011;29267;50.906;7.248;2023-12-20T06:18:50;17.05;;;5.43;;
43670;SDS011;29267;50.906;7.248;2023-12-20T06:21:15;21.00;;;4.85;;
43670;SDS011;29267;50.906;7.248;2023-12-20T06:23:41;19.38;;;4.05;;
43670;SDS011;29267;50.906;7.248;2023-12-20T06:26:07;19.60;;;4.30;;
43670;SDS011;29267;50.906;7.248;2023-12-20T06:28:32;16.15;;;4.47;;
43670;SDS011;29267;50.906;7.248;2023-12-20T06:30:58;15.55;;;3.67;;
43670;SDS011;29267;50.906;7.248;2023-12-20T06:33:25;23.10;;;3.90;;
43670;SDS011;29267;50.906;7.248;2023-12-20T06:35:51;13.30;;;3.28;;
43670;SDS011;29267;50.906;7.248;2023-12-20T06:38:20;15.25;;;3.40;;
43670;SDS011;29267;50.906;7.248;2023-12-20T06:40:45;21.42;;;4.90;;
43670;SDS011;29267;50.906;7.248;2023-12-20T06:43:11;18.15;;;4.32;;
43670;SDS011;29267;50.906;7.248;2023-12-20T06:45:38;22.73;;;4.20;;
43670;SDS011;29267;50.906;7.248;2023-12-20T06:48:04;17.13;;;4.43;;
43670;SDS011;29267;50.906;7.248;2023-12-20T06:50:30;17.25;;;5.03;;
43670;SDS011;29267;50.906;7.248;2023-12-20T06:52:56;16.50;;;4.47;;
43670;SDS011;29267;50.906;7.248;2023-12-20T06:55:21;29.05;;;6.68;;
43670;SDS011;29267;50.906;7.248;2023-12-20T06:57:48;26.42;;;7.75;;
43670;SDS011;29267;50.906;7.248;2023-12-20T07:00:14;36.60;;;6.63;;
43670;SDS011;29267;50.906;7.248;2023-12-20T07:02:40;21.20;;;5.80;;
43670;SDS011;29267;50.906;7.248;2023-12-20T07:05:05;19.58;;;6.25;;
43670;SDS011;29267;50.906;7.248;2023-12-20T07:07:31;23.70;;;6.60;;
43670;SDS011;29267;50.906;7.248;2023-12-20T07:09:57;22.95;;;6.43;;
43670;SDS011;29267;50.906;7.248;2023-12-20T07:12:23;21.40;;;5.45;;
43670;SDS011;29267;50.906;7.248;2023-12-20T07:14:48;27.10;;;4.60;;
43670;SDS011;29267;50.906;7.248;2023-12-20T07:17:14;28.98;;;5.95;;
43670;SDS011;29267;50.906;7.248;2023-12-20T07:19:40;13.98;;;5.95;;
43670;SDS011;29267;50.906;7.248;2023-12-20T07:22:07;13.35;;;3.90;;
43670;SDS011;29267;50.906;7.248;2023-12-20T07:24:33;25.13;;;5.88;;
43670;SDS011;29267;50.906;7.248;2023-12-20T07:26:59;22.75;;;3.78;;
43670;SDS011;29267;50.906;7.248;2023-12-20T07:29:25;23.85;;;4.80;;
43670;SDS011;29267;50.906;7.248;2023-12-20T07:31:52;17.45;;;5.18;;
43670;SDS011;29267;50.906;7.248;2023-12-20T07:34:19;21.17;;;5.13;;
43670;SDS011;29267;50.906;7.248;2023-12-20T07:36:45;25.02;;;4.28;;
43670;SDS011;29267;50.906;7.248;2023-12-20T07:39:11;18.05;;;3.67;;
43670;SDS011;29267;50.906;7.248;2023-12-20T07:41:36;24.13;;;4.78;;
43670;SDS011;29267;50.906;7.248;2023-12-20T07:44:02;21.55;;;3.90;;
43670;SDS011;29267;50.906;7.248;2023-12-20T07:46:29;13.73;;;3.85;;
43670;SDS011;29267;50.906;7.248;2023-12-20T07:48:54;16.58;;;3.58;;
43670;SDS011;29267;50.906;7.248;2023-12-20T07:51:20;21.42;;;4.22;;
43670;SDS011;29267;50.906;7.248;2023-12-20T07:53:46;11.98;;;3.60;;
43670;SDS011;29267;50.906;7.248;2023-12-20T07:56:15;13.43;;;3.60;;
43670;SDS011;29267;50.906;7.248;2023-12-20T07:58:41;6.45;;;3.22;;
43670;SDS011;29267;50.906;7.248;2023-12-20T08:01:07;15.77;;;4.63;;
43670;SDS011;29267;50.906;7.248;2023-12-20T08:03:33;12.23;;;4.05;;
43670;SDS011;29267;50.906;7.248;2023-12-20T08:05:59;17.52;;;3.75;;
43670;SDS011;29267;50.906;7.248;2023-12-20T08:08:25;23.70;;;4.18;;
43670;SDS011;29267;50.906;7.248;2023-12-20T08:10:51;11.73;;;3.65;;
43670;SDS011;29267;50.906;7.248;2023-12-20T08:13:16;23.27;;;4.60;;
43670;SDS011;29267;50.906;7.248;2023-12-20T08:15:42;17.42;;;4.43;;
43670;SDS011;29267;50.906;7.248;2023-12-20T08:18:07;20.88;;;3.88;;
43670;SDS011;29267;50.906;7.248;2023-12-20T08:20:33;16.80;;;3.85;;
43670;SDS011;29267;50.906;7.248;2023-12-20T08:22:59;22.33;;;4.55;;
43670;SDS011;29267;50.906;7.248;2023-12-20T08:25:24;22.52;;;5.13;;
43670;SDS011;29267;50.906;7.248;2023-12-20T08:27:50;18.17;;;3.80;;
43670;SDS011;29267;50.906;7.248;2023-12-20T08:30:15;15.63;;;3.45;;
43670;SDS011;29267;50.906;7.248;2023-12-20T08:32:45;17.08;;;3.95;;
43670;SDS011;29267;50.906;7.248;2023-12-20T08:35:11;16.92;;;3.60;;
43670;SDS011;29267;50.906;7.248;2023-12-20T08:37:36;24.33;;;4.45;;
43670;SDS011;29267;50.906;7.248;2023-12-20T08:40:02;16.95;;;4.20;;
43670;SDS011;29267;50.906;7.248;2023-12-20T08:42:28;22.10;;;3.67;;
43670;SDS011;29267;50.906;7.248;2023-12-20T08:44:56;25.60;;;3.78;;
43670;SDS011;29267;50.906;7.248;2023-12-20T08:47:23;14.15;;;3.53;;
43670;SDS011;29267;50.906;7.248;2023-12-20T08:49:49;10.10;;;3.47;;
43670;SDS011;29267;50.906;7.248;2023-12-20T08:52:14;23.88;;;3.95;;
43670;SDS011;29267;50.906;7.248;2023-12-20T08:54:41;15.75;;;3.40;;
43670;SDS011;29267;50.906;7.248;2023-12-20T08:57:07;12.82;;;3.05;;
43670;SDS011;29267;50.906;7.248;2023-12-20T08:59:33;26.95;;;3.80;;
43670;SDS011;29267;50.906;7.248;2023-12-20T09:01:58;15.75;;;3.90;;
43670;SDS011;29267;50.906;7.248;2023-12-20T09:04:24;13.10;;;3.63;;
43670;SDS011;29267;50.906;7.248;2023-12-20T09:06:50;25.55;;;4.72;;
43670;SDS011;29267;50.906;7.248;2023-12-20T09:09:15;11.30;;;3.30;;
43670;SDS011;29267;50.906;7.248;2023-12-20T09:11:41;21.33;;;3.60;;
43670;SDS011;29267;50.906;7.248;2023-12-20T09:14:07;17.02;;;3.78;;
43670;SDS011;29267;50.906;7.248;2023-12-20T09:16:33;11.60;;;4.07;;
43670;SDS011;29267;50.906;7.248;2023-12-20T09:18:58;13.35;;;3.63;;
43670;SDS011;29267;50.906;7.248;2023-12-20T09:21:24;15.75;;;4.10;;
43670;SDS011;29267;50.906;7.248;2023-12-20T09:23:49;12.05;;;3.63;;
43670;SDS011;29267;50.906;7.248;2023-12-20T09:26:15;20.15;;;5.00;;
43670;SDS011;29267;50.906;7.248;2023-12-20T09:28:41;15.13;;;4.00;;
43670;SDS011;29267;50.906;7.248;2023-12-20T09:31:06;21.80;;;4.50;;
43670;SDS011;29267;50.906;7.248;2023-12-20T09:33:33;23.95;;;4.32;;
43670;SDS011;29267;50.906;7.248;2023-12-20T09:35:58;16.05;;;4.32;;
43670;SDS011;29267;50.906;7.248;2023-12-20T09:38:24;21.80;;;3.90;;
43670;SDS011;29267;50.906;7.248;2023-12-20T09:40:50;13.45;;;3.88;;
43670;SDS011;29267;50.906;7.248;2023-12-20T09:43:16;14.68;;;3.53;;
43670;SDS011;29267;50.906;7.248;2023-12-20T09:45:45;19.30;;;5.25;;
43670;SDS011;29267;50.906;7.248;2023-12-20T09:48:12;18.00;;;4.00;;
43670;SDS011;29267;50.906;7.248;2023-12-20T09:50:41;17.23;;;3.63;;
43670;SDS011;29267;50.906;7.248;2023-12-20T09:53:10;16.25;;;4.35;;
43670;SDS011;29267;50.906;7.248;2023-12-20T09:55:40;15.45;;;4.38;;
43670;SDS011;29267;50.906;7.248;2023-12-20T09:58:06;21.90;;;5.47;;
43670;SDS011;29267;50.906;7.248;2023-12-20T10:00:34;19.33;;;4.35;;
43670;SDS011;29267;50.906;7.248;2023-12-20T10:03:00;15.85;;;4.13;;
43670;SDS011;29267;50.906;7.248;2023-12-20T10:05:30;15.73;;;3.50;;
43670;SDS011;29267;50.906;7.248;2023-12-20T10:07:56;9.93;;;3.97;;
43670;SDS011;29267;50.906;7.248;2023-12-20T10:10:23;12.38;;;3.35;;
43670;SDS011;29267;50.906;7.248;2023-12-20T10:13:05;18.17;;;4.03;;
43670;SDS011;29267;50.906;7.248;2023-12-20T10:15:35;13.30;;;4.37;;
43670;SDS011;29267;50.906;7.248;2023-12-20T10:18:02;11.07;;;3.33;;
43670;SDS011;29267;50.906;7.248;2023-12-20T10:20:28;14.70;;;3.72;;
43670;SDS011;29267;50.906;7.248;2023-12-20T10:22:54;13.85;;;3.03;;
43670;SDS011;29267;50.906;7.248;2023-12-20T10:25:21;11.55;;;3.25;;
43670;SDS011;29267;50.906;7.248;2023-12-20T10:27:47;12.65;;;3.03;;
43670;SDS011;29267;50.906;7.248;2023-12-20T10:30:14;12.82;;;2.75;;
43670;SDS011;29267;50.906;7.248;2023-12-20T10:32:40;16.02;;;2.88;;
43670;SDS011;29267;50.906;7.248;2023-12-20T10:35:08;18.65;;;3.42;;
43670;SDS011;29267;50.906;7.248;2023-12-20T10:37:35;14.15;;;3.30;;
43670;SDS011;29267;50.906;7.248;2023-12-20T10:40:03;15.18;;;4.18;;
43670;SDS011;29267;50.906;7.248;2023-12-20T10:42:31;19.33;;;2.88;;
43670;SDS011;29267;50.906;7.248;2023-12-20T10:44:58;24.02;;;4.53;;
43670;SDS011;29267;50.906;7.248;2023-12-20T10:47:25;9.63;;;2.97;;
43670;SDS011;29267;50.906;7.248;2023-12-20T10:49:52;18.50;;;3.70;;
43670;SDS011;29267;50.906;7.248;2023-12-20T10:52:18;22.17;;;4.20;;
43670;SDS011;29267;50.906;7.248;2023-12-20T10:54:47;17.38;;;4.40;;
43670;SDS011;29267;50.906;7.248;2023-12-20T10:57:13;15.07;;;3.28;;
43670;SDS011;29267;50.906;7.248;2023-12-20T10:59:41;15.20;;;3.78;;
43670;SDS011;29267;50.906;7.248;2023-12-20T11:02:10;18.73;;;5.63;;
43670;SDS011;29267;50.906;7.248;2023-12-20T11:07:08;26.00;;;5.18;;
43670;SDS011;29267;50.906;7.248;2023-12-20T11:10:10;21.05;;;2.80;;
43670;SDS011;29267;50.906;7.248;2023-12-20T11:12:47;13.25;;;3.00;;
43670;SDS011;29267;50.906;7.248;2023-12-20T11:15:18;15.07;;;3.20;;
43670;SDS011;29267;50.906;7.248;2023-12-20T11:17:45;12.25;;;2.95;;
43670;SDS011;29267;50.906;7.248;2023-12-20T11:20:13;21.02;;;3.47;;
43670;SDS011;29267;50.906;7.248;2023-12-20T11:22:39;10.95;;;2.53;;
43670;SDS011;29267;50.906;7.248;2023-12-20T11:25:17;14.52;;;3.20;;
43670;SDS011;29267;50.906;7.248;2023-12-20T11:27:43;13.77;;;3.20;;
43670;SDS011;29267;50.906;7.248;2023-12-20T11:30:10;8.63;;;2.95;;
43670;SDS011;29267;50.906;7.248;2023-12-20T11:32:36;9.75;;;2.60;;
43670;SDS011;29267;50.906;7.248;2023-12-20T11:37:37;24.92;;;4.18;;
43670;SDS011;29267;50.906;7.248;2023-12-20T11:40:08;12.75;;;3.00;;
43670;SDS011;29267;50.906;7.248;2023-12-20T11:42:40;12.77;;;2.42;;
43670;SDS011;29267;50.906;7.248;2023-12-20T11:45:09;11.38;;;2.50;;
43670;SDS011;29267;50.906;7.248;2023-12-20T11:47:36;24.83;;;5.13;;
43670;SDS011;29267;50.906;7.248;2023-12-20T11:50:02;14.68;;;2.38;;
43670;SDS011;29267;50.906;7.248;2023-12-20T11:52:29;7.70;;;2.85;;
43670;SDS011;29267;50.906;7.248;2023-12-20T11:54:55;18.33;;;3.10;;
43670;SDS011;29267;50.906;7.248;2023-12-20T11:57:21;26.88;;;2.70;;
43670;SDS011;29267;50.906;7.248;2023-12-20T11:59:47;9.38;;;2.22;;
43670;SDS011;29267;50.906;7.248;2023-12-20T12:02:13;11.00;;;2.80;;
43670;SDS011;29267;50.906;7.248;2023-12-20T12:04:41;7.07;;;1.80;;
43670;SDS011;29267;50.906;7.248;2023-12-20T12:07:07;10.98;;;2.08;;
43670;SDS011;29267;50.906;7.248;2023-12-20T12:09:32;15.48;;;2.92;;
43670;SDS011;29267;50.906;7.248;2023-12-20T12:11:58;12.40;;;2.33;;
43670;SDS011;29267;50.906;7.248;2023-12-20T12:14:24;17.63;;;2.97;;
43670;SDS011;29267;50.906;7.248;2023-12-20T12:16:50;10.80;;;3.55;;
43670;SDS011;29267;50.906;7.248;2023-12-20T12:19:25;15.35;;;4.32;;
43670;SDS011;29267;50.906;7.248;2023-12-20T12:21:51;11.88;;;2.80;;
43670;SDS011;29267;50.906;7.248;2023-12-20T12:24:32;17.63;;;2.50;;
43670;SDS011;29267;50.906;7.248;2023-12-20T12:26:57;11.48;;;3.10;;
43670;SDS011;29267;50.906;7.248;2023-12-20T12:29:23;11.05;;;2.97;;
43670;SDS011;29267;50.906;7.248;2023-12-20T12:31:52;19.13;;;4.50;;
43670;SDS011;29267;50.906;7.248;2023-12-20T12:34:17;11.82;;;3.10;;
43670;SDS011;29267;50.906;7.248;2023-12-20T12:36:43;18.15;;;2.97;;
43670;SDS011;29267;50.906;7.248;2023-12-20T12:39:12;13.18;;;3.20;;
43670;SDS011;29267;50.906;7.248;2023-12-20T12:41:40;12.88;;;3.53;;
43670;SDS011;29267;50.906;7.248;2023-12-20T12:44:06;11.93;;;2.80;;
43670;SDS011;29267;50.906;7.248;2023-12-20T12:46:31;10.05;;;3.20;;
43670;SDS011;29267;50.906;7.248;2023-12-20T12:48:57;16.95;;;4.03;;
43670;SDS011;29267;50.906;7.248;2023-12-20T12:51:23;12.38;;;3.45;;
43670;SDS011;29267;50.906;7.248;2023-12-20T12:53:49;12.10;;;2.70;;
43670;SDS011;29267;50.906;7.248;2023-12-20T12:56:15;17.35;;;4.03;;
43670;SDS011;29267;50.906;7.248;2023-12-20T12:58:41;13.82;;;3.50;;
43670;SDS011;29267;50.906;7.248;2023-12-20T13:01:07;12.25;;;3.50;;
43670;SDS011;29267;50.906;7.248;2023-12-20T13:03:32;13.55;;;3.08;;
43670;SDS011;29267;50.906;7.248;2023-12-20T13:05:59;10.73;;;3.55;;
43670;SDS011;29267;50.906;7.248;2023-12-20T13:08:25;12.82;;;3.30;;
43670;SDS011;29267;50.906;7.248;2023-12-20T13:10:50;13.88;;;4.78;;
43670;SDS011;29267;50.906;7.248;2023-12-20T13:13:16;10.25;;;3.50;;
43670;SDS011;29267;50.906;7.248;2023-12-20T13:15:42;15.82;;;3.83;;
43670;SDS011;29267;50.906;7.248;2023-12-20T13:18:13;13.25;;;3.65;;
43670;SDS011;29267;50.906;7.248;2023-12-20T13:20:38;15.80;;;3.50;;
43670;SDS011;29267;50.906;7.248;2023-12-20T13:23:05;15.57;;;4.18;;
43670;SDS011;29267;50.906;7.248;2023-12-20T13:25:30;18.02;;;4.70;;
43670;SDS011;29267;50.906;7.248;2023-12-20T13:27:56;22.02;;;5.18;;
43670;SDS011;29267;50.906;7.248;2023-12-20T13:30:22;12.95;;;4.10;;
43670;SDS011;29267;50.906;7.248;2023-12-20T13:32:47;15.32;;;3.80;;
43670;SDS011;29267;50.906;7.248;2023-12-20T13:35:14;18.08;;;4.63;;
43670;SDS011;29267;50.906;7.248;2023-12-20T13:37:39;16.77;;;4.38;;
43670;SDS011;29267;50.906;7.248;2023-12-20T13:40:05;10.38;;;4.63;;
43670;SDS011;29267;50.906;7.248;2023-12-20T13:42:31;22.58;;;4.30;;
43670;SDS011;29267;50.906;7.248;2023-12-20T13:44:57;16.67;;;3.92;;
43670;SDS011;29267;50.906;7.248;2023-12-20T13:47:22;18.30;;;5.57;;
43670;SDS011;29267;50.906;7.248;2023-12-20T13:49:48;11.80;;;3.75;;
43670;SDS011;29267;50.906;7.248;2023-12-20T13:52:14;15.63;;;3.83;;
43670;SDS011;29267;50.906;7.248;2023-12-20T13:54:39;21.83;;;5.15;;
43670;SDS011;29267;50.906;7.248;2023-12-20T13:57:05;22.88;;;5.40;;
43670;SDS011;29267;50.906;7.248;2023-12-20T13:59:30;20.05;;;4.88;;
43670;SDS011;29267;50.906;7.248;2023-12-20T14:01:56;18.33;;;3.58;;
43670;SDS011;29267;50.906;7.248;2023-12-20T14:04:22;15.82;;;4.47;;
43670;SDS011;29267;50.906;7.248;2023-12-20T14:06:47;15.05;;;4.28;;
43670;SDS011;29267;50.906;7.248;2023-12-20T14:09:13;20.95;;;4.38;;
43670;SDS011;29267;50.906;7.248;2023-12-20T14:11:39;17.35;;;5.20;;
43670;SDS011;29267;50.906;7.248;2023-12-20T14:14:06;15.30;;;4.10;;
43670;SDS011;29267;50.906;7.248;2023-12-20T14:16:33;8.95;;;3.58;;
43670;SDS011;29267;50.906;7.248;2023-12-20T14:19:00;11.98;;;3.78;;
43670;SDS011;29267;50.906;7.248;2023-12-20T14:21:27;13.98;;;3.95;;
43670;SDS011;29267;50.906;7.248;2023-12-20T14:23:53;23.60;;;4.45;;
43670;SDS011;29267;50.906;7.248;2023-12-20T14:26:19;15.35;;;4.82;;
43670;SDS011;29267;50.906;7.248;2023-12-20T14:28:44;25.90;;;6.57;;
43670;SDS011;29267;50.906;7.248;2023-12-20T14:31:10;19.88;;;4.93;;
43670;SDS011;29267;50.906;7.248;2023-12-20T14:33:35;18.30;;;5.20;;
43670;SDS011;29267;50.906;7.248;2023-12-20T14:36:03;11.20;;;4.22;;